Time;durP1;ratioP1;P1;durP2;ratioP2;P2;SDS_P1;SDS_P2;PMS_P1;PMS_P2;Temp;Humidity;BMP_temperature;BMP_pressure;BME280_temperature;BME280_humidity;BME280_pressure;Samples;Min_cycle;Max_cycle;Signal;HPM_P1;HPM_P2
2023/03/22 00:01:19;;;;;;;15.63;9.02;;;10.00;99.90;;;;;;5070643;28;20223;-68
2023/03/22 00:03:47;;;;;;;11.07;8.48;;;9.90;99.90;;;;;;5065135;28;21587;-68
2023/03/22 00:06:15;;;;;;;13.02;9.07;;;9.90;99.90;;;;;;5066554;28;20203;-68
2023/03/22 00:08:42;;;;;;;16.92;9.27;;;9.90;99.90;;;;;;5042821;27;20354;-68
2023/03/22 00:11:10;;;;;;;12.23;8.93;;;9.90;99.90;;;;;;5076253;28;20332;-68
2023/03/22 00:13:41;;;;;;;10.40;8.80;;;9.80;99.90;;;;;;5067498;28;20297;-68
2023/03/22 00:16:09;;;;;;;12.10;8.55;;;9.80;99.90;;;;;;5040742;27;20769;-68
2023/03/22 00:18:36;;;;;;;11.45;9.35;;;9.80;99.90;;;;;;5055840;27;20224;-68
2023/03/22 00:21:03;;;;;;;12.27;9.15;;;9.80;99.90;;;;;;5062263;28;20196;-68
2023/03/22 00:23:30;;;;;;;14.43;9.18;;;9.70;99.90;;;;;;5037194;28;20939;-68
2023/03/22 00:25:57;;;;;;;12.15;9.52;;;9.70;99.90;;;;;;5061116;28;20596;-68
2023/03/22 00:28:24;;;;;;;14.35;9.55;;;9.60;99.90;;;;;;5065540;28;20607;-68
2023/03/22 00:30:54;;;;;;;13.90;9.52;;;9.60;99.90;;;;;;5021520;28;20212;-68
2023/03/22 00:33:21;;;;;;;12.55;9.65;;;9.60;99.90;;;;;;5064252;28;20294;-68
2023/03/22 00:35:49;;;;;;;16.45;10.05;;;9.60;99.90;;;;;;5053379;27;20203;-68
2023/03/22 00:38:16;;;;;;;14.85;10.63;;;9.60;99.90;;;;;;5056721;28;20223;-68
2023/03/22 00:40:43;;;;;;;13.45;10.38;;;9.50;99.90;;;;;;5054495;27;20208;-68
2023/03/22 00:43:10;;;;;;;14.32;10.52;;;9.50;99.90;;;;;;5064726;28;20208;-68
2023/03/22 00:45:39;;;;;;;16.83;10.75;;;9.50;99.90;;;;;;5055730;27;20303;-68
2023/03/22 00:48:08;;;;;;;14.65;11.20;;;9.40;99.90;;;;;;5035825;28;20624;-68
2023/03/22 00:50:35;;;;;;;15.48;11.57;;;9.50;99.90;;;;;;5056636;27;20203;-68
2023/03/22 00:53:02;;;;;;;15.77;11.70;;;9.50;99.90;;;;;;5066851;28;20200;-68
2023/03/22 00:55:30;;;;;;;14.90;11.05;;;9.50;99.90;;;;;;5057057;28;20239;-68
2023/03/22 00:57:57;;;;;;;19.40;10.90;;;9.60;99.90;;;;;;5064746;28;20285;-68
2023/03/22 01:00:24;;;;;;;15.10;11.35;;;9.50;99.90;;;;;;5053905;27;20219;-68
2023/03/22 01:02:52;;;;;;;14.55;11.05;;;9.60;99.90;;;;;;5035208;28;20224;-68
2023/03/22 01:05:21;;;;;;;15.93;11.98;;;9.50;99.90;;;;;;5067186;28;20200;-68
2023/03/22 01:07:50;;;;;;;16.35;11.23;;;9.50;99.90;;;;;;5063507;28;20218;-68
2023/03/22 01:10:18;;;;;;;14.77;11.45;;;9.50;99.90;;;;;;5056039;28;20215;-68
2023/03/22 01:12:46;;;;;;;16.70;12.27;;;9.60;99.90;;;;;;5065166;28;20806;-68
2023/03/22 01:15:13;;;;;;;17.83;10.65;;;9.60;99.90;;;;;;5063902;28;20192;-67
2023/03/22 01:17:40;;;;;;;13.75;10.55;;;9.60;99.90;;;;;;5033420;28;20204;-68
2023/03/22 01:20:09;;;;;;;16.98;11.55;;;9.60;99.90;;;;;;5052849;28;20227;-68
2023/03/22 01:22:38;;;;;;;18.25;11.95;;;9.50;99.90;;;;;;5057281;27;20204;-68
2023/03/22 01:25:05;;;;;;;16.40;11.88;;;9.60;99.90;;;;;;5051042;28;20661;-68
2023/03/22 01:27:32;;;;;;;23.83;11.60;;;9.60;99.90;;;;;;5051519;27;20950;-68
2023/03/22 01:29:59;;;;;;;19.95;11.98;;;9.60;99.90;;;;;;5058750;28;20196;-68
2023/03/22 01:32:26;;;;;;;12.90;10.40;;;9.60;99.90;;;;;;5047301;28;20416;-68
2023/03/22 01:34:52;;;;;;;20.35;11.85;;;9.60;99.90;;;;;;5037417;28;20208;-68
2023/03/22 01:37:20;;;;;;;13.55;10.63;;;9.60;99.90;;;;;;5049029;28;20210;-68
2023/03/22 01:39:48;;;;;;;19.13;12.25;;;9.60;99.90;;;;;;5068309;28;20223;-68
2023/03/22 01:42:16;;;;;;;15.52;11.18;;;9.60;99.90;;;;;;5050821;28;20195;-68
2023/03/22 01:44:45;;;;;;;16.75;10.25;;;9.70;99.90;;;;;;5063847;28;20202;-68
2023/03/22 01:47:12;;;;;;;14.57;11.00;;;9.70;99.90;;;;;;5048495;28;20211;-68
2023/03/22 01:49:40;;;;;;;16.45;11.88;;;9.70;99.90;;;;;;5037014;28;20207;-69
2023/03/22 01:52:12;;;;;;;13.50;11.27;;;9.70;99.90;;;;;;5058710;27;20239;-68
2023/03/22 01:54:43;;;;;;;17.63;11.23;;;9.70;99.90;;;;;;5064828;28;20282;-68
2023/03/22 01:57:12;;;;;;;16.20;10.82;;;9.70;99.90;;;;;;5060070;28;20207;-68
2023/03/22 01:59:39;;;;;;;20.70;11.52;;;9.80;99.90;;;;;;5069002;28;21315;-68
2023/03/22 02:02:07;;;;;;;15.32;11.02;;;9.80;99.90;;;;;;5061579;28;20206;-68
2023/03/22 02:04:37;;;;;;;15.85;11.27;;;9.80;99.90;;;;;;5030337;27;20333;-68
2023/03/22 02:07:08;;;;;;;14.32;10.70;;;9.80;99.90;;;;;;5059987;28;20207;-68
2023/03/22 02:09:38;;;;;;;16.10;10.30;;;9.80;99.90;;;;;;5064375;28;20216;-68
2023/03/22 02:12:16;;;;;;;19.23;10.00;;;9.80;99.90;;;;;;5064537;28;20223;-68
2023/03/22 02:14:57;;;;;;;13.88;9.75;;;9.80;99.90;;;;;;5072043;28;20195;-68
2023/03/22 02:17:34;;;;;;;15.38;10.82;;;9.80;99.90;;;;;;5070282;28;20206;-68
2023/03/22 02:20:45;;;;;;;15.70;9.95;;;9.80;99.90;;;;;;5046064;28;20237;-68
2023/03/22 02:23:37;;;;;;;15.32;8.90;;;9.90;99.90;;;;;;5061801;28;20200;-68
2023/03/22 02:26:31;;;;;;;16.63;9.20;;;9.90;99.90;;;;;;5069957;28;20761;-68
2023/03/22 02:29:07;;;;;;;13.90;9.60;;;9.90;99.90;;;;;;5061723;28;20204;-68
2023/03/22 02:31:49;;;;;;;15.50;10.13;;;9.90;99.90;;;;;;5076062;28;20200;-68
2023/03/22 02:34:40;;;;;;;17.63;9.70;;;9.90;99.90;;;;;;5059983;28;20738;-68
2023/03/22 02:37:47;;;;;;;12.18;9.05;;;9.90;99.90;;;;;;5076831;28;20192;-68
2023/03/22 02:40:21;;;;;;;13.18;8.93;;;9.90;99.90;;;;;;5085533;28;20226;-68
2023/03/22 02:42:57;;;;;;;13.45;9.82;;;9.90;99.90;;;;;;5066006;27;20203;-68
2023/03/22 02:45:29;;;;;;;14.23;8.45;;;9.90;99.90;;;;;;5078393;27;20206;-68
2023/03/22 02:48:02;;;;;;;14.80;9.50;;;9.90;99.90;;;;;;5073191;28;20239;-68
2023/03/22 02:50:35;;;;;;;12.85;8.85;;;9.90;99.90;;;;;;5015114;27;20207;-68
2023/03/22 02:53:06;;;;;;;13.02;8.45;;;9.90;99.90;;;;;;5052742;27;20208;-68
2023/03/22 02:55:39;;;;;;;10.38;8.43;;;9.90;99.90;;;;;;5062515;28;20600;-68
2023/03/22 02:58:11;;;;;;;11.45;8.02;;;9.90;99.90;;;;;;5057272;27;20204;-68
2023/03/22 03:00:39;;;;;;;14.18;8.05;;;9.90;99.90;;;;;;5070738;28;20223;-68
2023/03/22 03:03:11;;;;;;;12.95;8.57;;;9.90;99.90;;;;;;5066696;28;20203;-68
2023/03/22 03:05:40;;;;;;;9.38;7.65;;;9.90;99.90;;;;;;5025066;27;20215;-68
2023/03/22 03:08:08;;;;;;;11.85;7.95;;;9.90;99.90;;;;;;5059398;27;20226;-68
2023/03/22 03:10:37;;;;;;;13.18;7.40;;;9.90;99.90;;;;;;5063313;27;20203;-68
2023/03/22 03:13:04;;;;;;;10.05;7.13;;;9.90;99.90;;;;;;5066744;28;20208;-68
2023/03/22 03:15:31;;;;;;;13.93;7.43;;;9.90;99.90;;;;;;5056768;28;20200;-68
2023/03/22 03:18:12;;;;;;;10.02;7.28;;;10.00;99.90;;;;;;5065668;28;20192;-68
2023/03/22 03:20:51;;;;;;;8.00;6.68;;;10.00;99.90;;;;;;5035334;27;20713;-68
2023/03/22 03:23:28;;;;;;;10.35;6.57;;;9.90;99.90;;;;;;5054404;27;20207;-68
2023/03/22 03:26:02;;;;;;;10.73;7.63;;;9.90;99.90;;;;;;5060313;27;20203;-68
2023/03/22 03:28:38;;;;;;;9.57;6.28;;;9.90;99.90;;;;;;5072412;28;20332;-68
2023/03/22 03:31:15;;;;;;;9.65;6.00;;;9.90;99.90;;;;;;5054106;28;20206;-68
2023/03/22 03:33:48;;;;;;;9.05;6.43;;;9.90;99.90;;;;;;5072809;27;20202;-68
2023/03/22 03:36:18;;;;;;;12.20;6.78;;;9.90;99.90;;;;;;5039950;27;20631;-68
2023/03/22 03:38:49;;;;;;;9.02;5.78;;;9.90;99.90;;;;;;5065856;28;20241;-68
2023/03/22 03:41:20;;;;;;;8.18;5.47;;;9.90;99.90;;;;;;5064057;28;21009;-68
2023/03/22 03:43:48;;;;;;;10.15;5.82;;;9.90;99.90;;;;;;5066805;28;20204;-68
2023/03/22 03:46:16;;;;;;;8.57;5.72;;;9.90;99.90;;;;;;5054268;28;20899;-68
2023/03/22 03:48:46;;;;;;;9.20;5.63;;;9.90;99.90;;;;;;5066456;27;20219;-67
2023/03/22 03:51:13;;;;;;;8.23;5.75;;;9.90;99.90;;;;;;5056331;27;20626;-68
2023/03/22 03:53:40;;;;;;;8.43;5.25;;;9.90;99.90;;;;;;5035376;28;20211;-68
2023/03/22 03:56:08;;;;;;;13.15;5.28;;;10.10;99.90;;;;;;5054010;27;20208;-68
2023/03/22 03:58:36;;;;;;;7.18;5.38;;;9.90;99.90;;;;;;5062265;28;20205;-68
2023/03/22 04:01:03;;;;;;;10.20;5.45;;;9.90;99.90;;;;;;5049390;27;20224;-68
2023/03/22 04:03:30;;;;;;;8.52;4.57;;;9.90;99.90;;;;;;5069616;28;20211;-68
2023/03/22 04:05:58;;;;;;;10.82;4.68;;;10.00;99.90;;;;;;5067855;28;20958;-68
2023/03/22 04:08:25;;;;;;;7.47;4.95;;;9.90;99.90;;;;;;5043419;27;20218;-68
2023/03/22 04:10:52;;;;;;;6.50;3.83;;;10.00;99.90;;;;;;5060395;27;20203;-68
2023/03/22 04:13:20;;;;;;;6.90;4.07;;;9.90;99.90;;;;;;5070764;27;20208;-68
2023/03/22 04:15:52;;;;;;;8.60;4.30;;;9.90;99.90;;;;;;5070988;28;20196;-68
2023/03/22 04:18:20;;;;;;;6.10;4.35;;;9.90;99.90;;;;;;5060915;27;20215;-68
2023/03/22 04:20:48;;;;;;;5.65;3.80;;;9.90;99.90;;;;;;5069834;28;20297;-68
2023/03/22 04:23:15;;;;;;;6.07;3.90;;;9.90;99.90;;;;;;5043117;27;20204;-68
2023/03/22 04:25:42;;;;;;;10.77;4.22;;;9.90;99.90;;;;;;5056519;27;20206;-67
2023/03/22 04:28:09;;;;;;;7.75;4.38;;;9.90;99.90;;;;;;5069285;28;20281;-68
2023/03/22 04:30:36;;;;;;;7.25;4.05;;;9.90;99.90;;;;;;5065405;28;20216;-68
2023/03/22 04:33:05;;;;;;;6.40;4.05;;;9.90;99.90;;;;;;5054840;27;25420;-68
2023/03/22 04:35:33;;;;;;;5.97;3.78;;;9.90;99.90;;;;;;5069564;28;20686;-68
2023/03/22 04:38:00;;;;;;;8.55;3.92;;;9.90;99.90;;;;;;5033933;27;20216;-68
2023/03/22 04:40:30;;;;;;;10.73;4.45;;;9.90;99.90;;;;;;5072975;28;20219;-68
2023/03/22 04:42:57;;;;;;;9.65;3.63;;;9.90;99.90;;;;;;5054076;27;20196;-68
2023/03/22 04:45:27;;;;;;;4.68;3.78;;;9.90;99.90;;;;;;5064801;28;20204;-68
2023/03/22 04:47:55;;;;;;;7.75;4.32;;;9.90;99.90;;;;;;5047673;28;20215;-68
2023/03/22 04:50:23;;;;;;;7.93;4.15;;;9.90;99.90;;;;;;5054247;27;20196;-68
2023/03/22 04:52:50;;;;;;;7.25;3.92;;;9.90;99.90;;;;;;5071857;28;20199;-68
2023/03/22 04:55:17;;;;;;;7.60;4.60;;;9.80;99.90;;;;;;5021904;27;20718;-68
2023/03/22 04:57:44;;;;;;;7.25;4.90;;;9.80;99.90;;;;;;5059901;28;20204;-68
2023/03/22 05:00:12;;;;;;;7.93;4.28;;;9.70;99.90;;;;;;5049409;27;20294;-68
2023/03/22 05:02:39;;;;;;;5.40;4.40;;;9.70;99.90;;;;;;5047939;27;20234;-68
2023/03/22 05:05:07;;;;;;;7.50;5.15;;;9.70;99.90;;;;;;5059791;27;20203;-68
2023/03/22 05:07:35;;;;;;;8.55;5.15;;;9.70;99.90;;;;;;5064788;28;20573;-68
2023/03/22 05:10:02;;;;;;;8.25;5.18;;;9.70;99.90;;;;;;5044143;27;20207;-68
2023/03/22 05:12:29;;;;;;;5.97;5.40;;;9.60;99.90;;;;;;5066466;28;20785;-68
2023/03/22 05:14:56;;;;;;;11.60;5.70;;;9.60;99.90;;;;;;5059101;28;20730;-68
2023/03/22 05:17:22;;;;;;;6.88;5.20;;;9.70;99.90;;;;;;5065884;28;21078;-68
2023/03/22 05:19:51;;;;;;;11.25;5.53;;;9.70;99.90;;;;;;5053522;27;20218;-68
2023/03/22 05:22:18;;;;;;;10.48;5.65;;;9.70;99.90;;;;;;5064283;28;20345;-68
2023/03/22 05:24:46;;;;;;;9.32;6.28;;;9.70;99.90;;;;;;5038601;28;20211;-68
2023/03/22 05:27:13;;;;;;;10.02;5.93;;;9.70;99.90;;;;;;5065672;28;20235;-68
2023/03/22 05:29:43;;;;;;;8.57;6.15;;;9.70;99.90;;;;;;5064750;28;20229;-68
2023/03/22 05:32:11;;;;;;;14.02;6.25;;;9.70;99.90;;;;;;5052081;28;20982;-67
2023/03/22 05:34:38;;;;;;;10.32;6.65;;;9.70;99.90;;;;;;5048020;27;20204;-68
2023/03/22 05:37:05;;;;;;;9.52;6.55;;;9.70;99.90;;;;;;5063480;28;20200;-68
2023/03/22 05:39:32;;;;;;;8.38;6.15;;;9.70;99.90;;;;;;5015794;27;21231;-68
2023/03/22 05:42:00;;;;;;;10.07;6.32;;;9.70;99.90;;;;;;5055959;27;20592;-68
2023/03/22 05:44:27;;;;;;;11.35;6.47;;;9.70;99.90;;;;;;5057062;28;20192;-68
2023/03/22 05:46:54;;;;;;;9.05;6.35;;;9.70;99.90;;;;;;5074273;28;20208;-68
2023/03/22 05:49:21;;;;;;;10.98;6.15;;;9.70;99.90;;;;;;5059414;28;20239;-68
2023/03/22 05:51:49;;;;;;;9.18;5.93;;;9.70;99.90;;;;;;5060506;28;20220;-68
2023/03/22 05:54:16;;;;;;;8.45;6.15;;;9.70;99.90;;;;;;5067826;28;20250;-68
2023/03/22 05:56:43;;;;;;;15.93;6.80;;;9.80;99.90;;;;;;5040944;28;21578;-67
2023/03/22 05:59:12;;;;;;;7.78;5.75;;;9.80;99.90;;;;;;5063362;28;20216;-67
2023/03/22 06:01:39;;;;;;;10.50;6.55;;;9.80;99.90;;;;;;5066980;28;20807;-68
2023/03/22 06:04:06;;;;;;;8.40;5.97;;;9.80;99.90;;;;;;5064143;27;21268;-67
2023/03/22 06:06:33;;;;;;;7.95;5.57;;;9.90;99.90;;;;;;5050993;28;20203;-68
2023/03/22 06:09:00;;;;;;;9.65;6.32;;;9.80;99.90;;;;;;5041735;28;21230;-68
2023/03/22 06:11:27;;;;;;;10.35;5.80;;;9.90;99.90;;;;;;5036721;28;20215;-68
2023/03/22 06:13:54;;;;;;;7.93;6.03;;;9.90;99.90;;;;;;5048556;28;20219;-68
2023/03/22 06:16:22;;;;;;;7.65;6.15;;;9.90;99.90;;;;;;5063894;28;20212;-67
2023/03/22 06:18:49;;;;;;;10.80;6.65;;;9.90;99.90;;;;;;5052942;28;20684;-68
2023/03/22 06:21:16;;;;;;;9.38;6.43;;;9.90;99.90;;;;;;5067749;28;20231;-67
2023/03/22 06:23:43;;;;;;;8.43;6.63;;;10.00;99.90;;;;;;5049400;28;20856;-67
2023/03/22 06:26:10;;;;;;;11.50;7.38;;;9.90;99.90;;;;;;5067926;28;20213;-67
2023/03/22 06:28:37;;;;;;;12.27;6.68;;;10.00;99.90;;;;;;5047608;28;20267;-67
2023/03/22 06:31:07;;;;;;;11.75;6.60;;;10.00;99.90;;;;;;5058203;28;20210;-68
2023/03/22 06:33:35;;;;;;;10.75;7.72;;;10.10;99.90;;;;;;5043984;28;20231;-67
2023/03/22 06:36:03;;;;;;;10.55;6.57;;;10.10;99.90;;;;;;5054163;27;20199;-68
2023/03/22 06:38:30;;;;;;;12.40;7.28;;;10.10;99.90;;;;;;5058275;28;20196;-67
2023/03/22 06:40:57;;;;;;;10.95;7.32;;;10.10;99.90;;;;;;5071131;28;20238;-68
2023/03/22 06:43:24;;;;;;;11.55;7.35;;;10.10;99.90;;;;;;5041175;28;20216;-68
2023/03/22 06:45:51;;;;;;;12.90;6.93;;;10.10;99.90;;;;;;5052533;28;20207;-67
2023/03/22 06:48:17;;;;;;;12.38;8.48;;;10.20;99.90;;;;;;5056359;28;20620;-68
2023/03/22 06:50:46;;;;;;;15.13;8.32;;;10.20;99.90;;;;;;5035921;28;27995;-68
2023/03/22 06:53:13;;;;;;;16.42;8.30;;;10.30;99.90;;;;;;5042587;28;20207;-67
2023/03/22 06:55:40;;;;;;;13.98;8.25;;;10.30;99.90;;;;;;5063989;28;20216;-67
2023/03/22 06:58:07;;;;;;;15.70;9.93;;;10.40;99.90;;;;;;5053345;28;20220;-66
2023/03/22 07:00:34;;;;;;;13.27;8.20;;;10.40;99.90;;;;;;5043675;28;20225;-69
2023/03/22 07:03:01;;;;;;;12.20;8.27;;;10.40;99.90;;;;;;5079993;28;20206;-68
2023/03/22 07:05:28;;;;;;;14.30;8.45;;;10.40;99.90;;;;;;5049081;28;20287;-67
2023/03/22 07:07:56;;;;;;;15.73;8.13;;;10.40;99.90;;;;;;5039046;28;20982;-68
2023/03/22 07:10:23;;;;;;;11.70;8.15;;;10.40;99.90;;;;;;5063767;28;20242;-69
2023/03/22 07:12:50;;;;;;;14.02;8.75;;;10.50;99.90;;;;;;5042573;28;20254;-68
2023/03/22 07:15:18;;;;;;;8.07;7.20;;;10.40;99.90;;;;;;5049526;28;20216;-68
2023/03/22 07:17:45;;;;;;;12.60;7.90;;;10.40;99.90;;;;;;5081094;28;20196;-68
2023/03/22 07:20:12;;;;;;;12.52;8.40;;;10.50;99.90;;;;;;5079042;28;20226;-68
2023/03/22 07:22:39;;;;;;;12.02;8.23;;;10.50;99.90;;;;;;5063480;28;20234;-68
2023/03/22 07:25:08;;;;;;;16.70;8.50;;;10.50;99.90;;;;;;5067092;28;20200;-68
2023/03/22 07:27:35;;;;;;;10.35;7.88;;;10.50;99.90;;;;;;5063504;27;20228;-69
2023/03/22 07:30:02;;;;;;;12.90;7.68;;;10.60;99.90;;;;;;5054052;28;20211;-68
2023/03/22 07:32:29;;;;;;;14.88;7.18;;;10.60;99.90;;;;;;5084558;28;20200;-68
2023/03/22 07:34:56;;;;;;;13.18;8.65;;;10.60;99.90;;;;;;5081935;28;20200;-68
2023/03/22 07:37:23;;;;;;;9.07;7.32;;;10.60;99.90;;;;;;5062244;27;20363;-68
2023/03/22 07:39:50;;;;;;;9.90;7.65;;;10.60;99.90;;;;;;5069568;27;21079;-68
2023/03/22 07:42:18;;;;;;;13.20;7.60;;;10.60;99.90;;;;;;5084324;27;20230;-68
2023/03/22 07:44:46;;;;;;;9.35;7.38;;;10.70;99.90;;;;;;5036800;27;20568;-68
2023/03/22 07:47:13;;;;;;;12.55;6.82;;;10.80;99.90;;;;;;5086164;28;20193;-68
2023/03/22 07:49:40;;;;;;;13.15;7.00;;;10.80;99.90;;;;;;5085008;28;20562;-68
2023/03/22 07:52:07;;;;;;;12.93;7.80;;;10.70;99.90;;;;;;5082587;28;20670;-68
2023/03/22 07:54:34;;;;;;;10.85;7.43;;;10.90;99.90;;;;;;5060745;28;20206;-68
2023/03/22 07:57:01;;;;;;;10.70;7.15;;;11.00;99.90;;;;;;5084622;28;20200;-68
2023/03/22 07:59:30;;;;;;;10.73;7.30;;;11.00;99.90;;;;;;5062136;28;20200;-68
2023/03/22 08:01:57;;;;;;;10.38;6.90;;;11.00;99.90;;;;;;5052540;27;20242;-68
2023/03/22 08:04:24;;;;;;;11.18;6.97;;;11.00;99.90;;;;;;5078856;27;20199;-68
2023/03/22 08:06:53;;;;;;;8.77;6.80;;;11.10;99.90;;;;;;5085700;28;20257;-68
2023/03/22 08:09:20;;;;;;;10.00;6.28;;;11.10;99.90;;;;;;5043716;27;20303;-68
2023/03/22 08:11:47;;;;;;;8.52;6.10;;;11.20;99.90;;;;;;5049359;28;20211;-68
2023/03/22 08:14:14;;;;;;;9.02;6.10;;;11.20;99.90;;;;;;5068741;27;20200;-68
2023/03/22 08:16:43;;;;;;;8.90;5.93;;;11.20;99.90;;;;;;5045198;27;20220;-68
2023/03/22 08:19:10;;;;;;;12.38;6.13;;;11.30;99.90;;;;;;5080650;27;20216;-68
2023/03/22 08:21:37;;;;;;;8.73;5.80;;;11.30;99.50;;;;;;5080470;28;20230;-68
2023/03/22 08:24:05;;;;;;;6.57;5.20;;;11.40;98.50;;;;;;5069660;27;20223;-68
2023/03/22 08:26:32;;;;;;;9.50;5.35;;;11.40;98.60;;;;;;5064967;28;20205;-68
2023/03/22 08:28:58;;;;;;;12.25;5.10;;;11.40;96.90;;;;;;5070397;28;21206;-68
2023/03/22 08:31:25;;;;;;;15.57;4.93;;;11.50;95.90;;;;;;5069374;27;20199;-68
2023/03/22 08:33:54;;;;;;;14.27;6.13;;;11.50;96.50;;;;;;5057474;27;20286;-68
2023/03/22 08:36:22;;;;;;;8.07;5.43;;;11.60;95.80;;;;;;5089157;28;20727;-68
2023/03/22 08:38:49;;;;;;;6.45;5.20;;;11.70;94.90;;;;;;5066464;27;20706;-68
2023/03/22 08:41:16;;;;;;;9.10;5.35;;;11.70;94.60;;;;;;5069239;28;20235;-68
2023/03/22 08:43:43;;;;;;;10.98;5.47;;;11.80;94.20;;;;;;5070529;28;20214;-68
2023/03/22 08:46:10;;;;;;;7.80;4.72;;;11.80;91.70;;;;;;5065639;28;20211;-68
2023/03/22 08:48:40;;;;;;;7.22;4.75;;;11.80;86.80;;;;;;5047751;27;20224;-68
2023/03/22 08:51:08;;;;;;;10.85;5.75;;;11.80;86.00;;;;;;5085001;28;20749;-68
2023/03/22 08:53:35;;;;;;;13.52;5.50;;;11.80;83.70;;;;;;5079188;28;20231;-68
2023/03/22 08:56:02;;;;;;;8.05;5.13;;;11.80;84.50;;;;;;5064130;27;20199;-68
2023/03/22 08:58:29;;;;;;;8.65;5.63;;;11.80;81.30;;;;;;5076675;28;20225;-68
2023/03/22 09:00:56;;;;;;;10.15;5.25;;;11.80;80.40;;;;;;5059988;27;20227;-68
2023/03/22 09:03:23;;;;;;;6.53;4.90;;;11.80;79.50;;;;;;5079160;28;20210;-68
2023/03/22 09:05:51;;;;;;;6.95;4.78;;;11.80;79.00;;;;;;5043096;27;20203;-68
2023/03/22 09:08:19;;;;;;;6.50;5.20;;;11.80;76.90;;;;;;5080883;28;20216;-68
2023/03/22 09:10:50;;;;;;;16.63;5.25;;;11.80;78.40;;;;;;5080899;28;20225;-68
2023/03/22 09:13:17;;;;;;;10.82;5.28;;;11.80;82.20;;;;;;5062748;28;20206;-67
2023/03/22 09:15:44;;;;;;;7.60;5.13;;;11.90;80.90;;;;;;5058842;28;20206;-68
2023/03/22 09:18:11;;;;;;;8.25;5.63;;;11.90;77.50;;;;;;5083982;28;20192;-67
2023/03/22 09:20:38;;;;;;;7.95;5.50;;;12.00;75.10;;;;;;5049715;27;20805;-68
2023/03/22 09:23:05;;;;;;;8.85;4.95;;;12.00;67.00;;;;;;5073445;28;20196;-68
2023/03/22 09:25:34;;;;;;;11.38;4.97;;;12.00;70.60;;;;;;5062606;28;20220;-68
2023/03/22 09:28:01;;;;;;;8.45;4.78;;;12.00;69.80;;;;;;5063029;27;20231;-67
2023/03/22 09:30:28;;;;;;;5.70;4.40;;;12.00;64.30;;;;;;5068618;28;20222;-68
2023/03/22 09:32:55;;;;;;;7.75;4.65;;;12.10;62.80;;;;;;5068939;28;20257;-68
2023/03/22 09:35:22;;;;;;;10.48;5.25;;;12.10;57.90;;;;;;5035089;28;20228;-68
2023/03/22 09:37:52;;;;;;;10.07;5.18;;;12.10;58.70;;;;;;5068252;28;20994;-68
2023/03/22 09:40:19;;;;;;;8.52;4.80;;;12.10;63.10;;;;;;5068199;28;20200;-68
2023/03/22 09:42:50;;;;;;;12.07;4.30;;;12.10;67.60;;;;;;5037310;27;20230;-68
2023/03/22 09:45:20;;;;;;;9.48;4.93;;;12.20;59.20;;;;;;5071893;27;20200;-68
2023/03/22 09:47:49;;;;;;;5.43;4.25;;;12.30;55.70;;;;;;5054699;28;20745;-68
2023/03/22 09:50:20;;;;;;;9.38;4.30;;;12.30;54.60;;;;;;5076892;28;20200;-68
2023/03/22 09:52:47;;;;;;;9.10;4.05;;;12.30;46.90;;;;;;5042381;28;20230;-68
2023/03/22 09:55:20;;;;;;;7.88;3.40;;;12.30;38.20;;;;;;5076059;28;20203;-68
2023/03/22 09:57:58;;;;;;;5.93;3.75;;;12.30;34.50;;;;;;5052478;27;20298;-68
2023/03/22 10:00:37;;;;;;;9.70;4.30;;;12.20;36.00;;;;;;5073621;28;20210;-68
2023/03/22 10:03:15;;;;;;;5.15;3.20;;;12.20;39.30;;;;;;5050159;28;20237;-67
2023/03/22 10:05:47;;;;;;;4.47;2.75;;;12.20;42.10;;;;;;5068392;28;20214;-67
2023/03/22 10:08:26;;;;;;;3.70;3.03;;;12.20;40.30;;;;;;5044440;28;20836;-68
2023/03/22 10:10:54;;;;;;;7.80;3.25;;;12.20;40.50;;;;;;5073902;28;20222;-68
2023/03/22 10:13:30;;;;;;;8.05;3.13;;;12.20;35.40;;;;;;5066343;28;21108;-67
2023/03/22 10:16:00;;;;;;;5.72;2.58;;;12.30;39.00;;;;;;5077640;28;20207;-67
2023/03/22 10:18:32;;;;;;;3.47;2.58;;;12.30;29.00;;;;;;5057211;28;20292;-67
2023/03/22 10:21:01;;;;;;;5.50;2.60;;;12.30;30.20;;;;;;5079301;28;20210;-67
2023/03/22 10:23:31;;;;;;;5.80;2.22;;;12.30;22.80;;;;;;5048388;28;20218;-67
2023/03/22 10:26:00;;;;;;;4.40;2.53;;;12.40;28.00;;;;;;5076334;28;20655;-67
2023/03/22 10:28:31;;;;;;;4.95;2.25;;;12.40;29.40;;;;;;5068845;28;20280;-67
2023/03/22 10:30:59;;;;;;;7.50;2.20;;;12.40;24.30;;;;;;5059227;28;20224;-67
2023/03/22 10:33:37;;;;;;;6.32;2.35;;;12.40;16.50;;;;;;5056649;28;20227;-67
2023/03/22 10:36:07;;;;;;;4.95;2.10;;;12.40;15.40;;;;;;5072257;28;20947;-67
2023/03/22 10:38:45;;;;;;;7.10;2.65;;;12.40;20.90;;;;;;5051384;28;20196;-67
2023/03/22 10:41:17;;;;;;;5.20;2.25;;;12.40;5.80;;;;;;5069344;28;20551;-67
2023/03/22 10:43:48;;;;;;;4.80;2.50;;;12.30;5.60;;;;;;5052052;28;20408;-67
2023/03/22 10:46:19;;;;;;;4.07;1.73;;;12.30;10.20;;;;;;5057307;28;20192;-67
2023/03/22 10:48:49;;;;;;;2.45;1.80;;;12.40;1.00;;;;;;5053311;28;20204;-68
2023/03/22 10:51:24;;;;;;;7.30;1.90;;;12.40;1.00;;;;;;5078540;28;20807;-67
2023/03/22 10:53:54;;;;;;;6.55;2.15;;;12.40;1.00;;;;;;5051996;28;20222;-68
2023/03/22 10:56:22;;;;;;;3.00;1.77;;;12.40;1.00;;;;;;5062622;28;20853;-67
2023/03/22 10:58:51;;;;;;;9.00;2.42;;;12.40;1.00;;;;;;5065549;28;20201;-67
2023/03/22 11:01:26;;;;;;;8.38;2.10;;;12.50;1.60;;;;;;5063237;27;20223;-67
2023/03/22 11:03:57;;;;;;;5.38;2.17;;;12.60;1.00;;;;;;5066260;28;20210;-67
2023/03/22 11:06:26;;;;;;;5.90;2.42;;;12.60;1.00;;;;;;5062559;27;20336;-67
2023/03/22 11:08:56;;;;;;;6.18;2.30;;;12.70;1.00;;;;;;5081186;27;20199;-67
2023/03/22 11:11:26;;;;;;;7.25;1.73;;;12.80;1.00;;;;;;5051906;27;20222;-67
2023/03/22 11:14:00;;;;;;;6.22;2.25;;;12.80;1.00;;;;;;5060149;28;20723;-67
2023/03/22 11:16:27;;;;;;;3.80;1.90;;;12.90;1.00;;;;;;5051907;27;20786;-67
2023/03/22 11:18:55;;;;;;;3.78;1.80;;;12.90;1.00;;;;;;5073200;28;20673;-67
2023/03/22 11:21:28;;;;;;;4.45;2.15;;;13.00;1.00;;;;;;5059522;28;20415;-67
2023/03/22 11:23:58;;;;;;;4.72;2.10;;;13.00;1.00;;;;;;5076520;28;20196;-67
2023/03/22 11:26:29;;;;;;;6.55;2.00;;;12.90;1.00;;;;;;5045409;28;20427;-67
2023/03/22 11:29:06;;;;;;;5.18;2.35;;;13.00;1.00;;;;;;5067102;28;20202;-67
2023/03/22 11:31:58;;;;;;;6.35;2.03;;;12.90;1.00;;;;;;5063728;27;20816;-67
2023/03/22 11:34:28;;;;;;;5.20;2.05;;;12.90;1.00;;;;;;5069216;28;20898;-67
2023/03/22 11:36:56;;;;;;;3.92;2.30;;;12.90;1.00;;;;;;5072570;27;20207;-67
2023/03/22 11:39:27;;;;;;;4.90;2.00;;;12.80;1.00;;;;;;5075967;28;20818;-67
2023/03/22 11:41:57;;;;;;;7.13;2.00;;;12.80;1.00;;;;;;5050947;28;20306;-67
2023/03/22 11:44:27;;;;;;;5.03;1.98;;;12.70;1.00;;;;;;5065872;28;20678;-67
2023/03/22 11:46:56;;;;;;;5.15;2.10;;;12.70;1.00;;;;;;5081228;28;20206;-67
2023/03/22 11:49:27;;;;;;;7.63;2.10;;;12.60;1.00;;;;;;5063302;27;20203;-67
2023/03/22 11:51:55;;;;;;;6.75;2.08;;;12.60;1.00;;;;;;5073048;28;20277;-67
2023/03/22 11:54:30;;;;;;;4.65;1.92;;;12.50;1.00;;;;;;5076793;28;20200;-67
2023/03/22 11:57:00;;;;;;;4.68;1.58;;;12.50;1.00;;;;;;5043376;27;20223;-67
2023/03/22 11:59:30;;;;;;;10.90;2.25;;;12.50;1.00;;;;;;5067564;28;20268;-67
2023/03/22 12:02:04;;;;;;;5.53;2.10;;;12.40;9.70;;;;;;5071882;28;20392;-67
2023/03/22 12:04:35;;;;;;;5.72;2.70;;;12.30;17.90;;;;;;5065252;27;20215;-67
2023/03/22 12:07:06;;;;;;;4.35;2.20;;;12.30;26.30;;;;;;5065771;27;20829;-67
2023/03/22 12:09:40;;;;;;;4.78;2.10;;;12.20;36.20;;;;;;5081058;27;20192;-67
2023/03/22 12:12:13;;;;;;;5.80;2.53;;;12.20;44.80;;;;;;5074799;28;20202;-67
2023/03/22 12:14:47;;;;;;;4.85;3.00;;;12.10;54.60;;;;;;5055220;28;20218;-67
2023/03/22 12:17:21;;;;;;;5.80;3.13;;;12.10;58.40;;;;;;5059331;27;20810;-67
2023/03/22 12:19:54;;;;;;;6.32;2.90;;;12.00;60.60;;;;;;5066164;27;20203;-67
2023/03/22 12:22:26;;;;;;;7.07;3.63;;;12.00;65.20;;;;;;5076201;28;20527;-67
2023/03/22 12:24:52;;;;;;;9.38;3.25;;;12.00;67.60;;;;;;5068773;27;20208;-67
2023/03/22 12:27:24;;;;;;;4.78;3.17;;;12.00;73.00;;;;;;5074588;27;20463;-67
2023/03/22 12:29:59;;;;;;;9.00;3.08;;;12.00;71.50;;;;;;5049405;28;20221;-67
2023/03/22 12:32:29;;;;;;;8.77;2.72;;;11.90;77.80;;;;;;5074137;27;20534;-67
2023/03/22 12:34:57;;;;;;;5.80;2.70;;;11.90;75.90;;;;;;5064303;27;20748;-67
2023/03/22 12:37:27;;;;;;;6.13;2.95;;;11.90;74.40;;;;;;5054336;27;20530;-67
2023/03/22 12:39:58;;;;;;;7.85;2.35;;;11.90;77.70;;;;;;5030713;22;21063;-67
2023/03/22 12:42:38;;;;;;;5.30;2.63;;;11.90;75.80;;;;;;5005945;28;20222;-67
2023/03/22 12:45:15;;;;;;;5.28;2.88;;;11.90;77.10;;;;;;4979807;28;20210;-67
2023/03/22 12:47:45;;;;;;;10.43;3.30;;;11.90;81.30;;;;;;4991697;28;20222;-67
2023/03/22 12:50:15;;;;;;;6.13;2.97;;;12.00;86.30;;;;;;4971387;28;20335;-67
2023/03/22 12:52:46;;;;;;;7.55;3.00;;;12.00;86.80;;;;;;4991139;28;21776;-67
2023/03/22 12:55:22;;;;;;;5.85;3.65;;;12.00;88.80;;;;;;4984586;28;21596;-67
2023/03/22 12:57:53;;;;;;;8.10;3.50;;;12.10;86.10;;;;;;5006692;28;20577;-67